createdAt,value
2018-02-04T00:01:41.346Z,100947.22
2018-02-04T00:04:07.528Z,100954.80
2018-02-04T00:06:33.679Z,100964.91
2018-02-04T00:08:59.762Z,100961.57
2018-02-04T00:11:25.962Z,100963.41
2018-02-04T00:13:52.107Z,100979.96
2018-02-04T00:16:18.251Z,100985.23
2018-02-04T00:18:44.369Z,100985.25
2018-02-04T00:21:10.642Z,100990.59
2018-02-04T00:23:36.829Z,100994.54
2018-02-04T00:26:02.993Z,101002.53
2018-02-04T00:28:29.089Z,101010.41
2018-02-04T00:30:55.322Z,101014.88
2018-02-04T00:33:21.548Z,101018.53
2018-02-04T00:35:47.665Z,101025.23
2018-02-04T00:38:13.790Z,101027.06
2018-02-04T00:40:39.983Z,101033.59
2018-02-04T00:43:06.180Z,101040.45
2018-02-04T00:45:32.274Z,101035.66
2018-02-04T00:47:58.386Z,101047.20
2018-02-04T00:50:24.511Z,101047.44
2018-02-04T00:52:50.749Z,101053.41
2018-02-04T00:55:16.929Z,101069.66
2018-02-04T00:57:43.053Z,101069.80
2018-02-04T01:00:09.316Z,101081.08
2018-02-04T01:02:35.484Z,101084.27
2018-02-04T01:05:01.648Z,101086.31
2018-02-04T01:07:27.750Z,101089.62
2018-02-04T01:09:53.915Z,101092.95
2018-02-04T01:12:20.021Z,101097.17
2018-02-04T01:14:46.198Z,101107.47
2018-02-04T01:17:12.358Z,101107.39
2018-02-04T01:19:38.452Z,101109.97
2018-02-04T01:22:04.548Z,101114.33
2018-02-04T01:24:30.727Z,101112.25
2018-02-04T01:26:56.844Z,101119.52
2018-02-04T01:29:22.969Z,101122.59
2018-02-04T01:31:49.102Z,101125.21
2018-02-04T01:34:15.281Z,101127.31
2018-02-04T01:36:41.376Z,101136.03
2018-02-04T01:39:07.477Z,101141.59
2018-02-04T01:41:33.618Z,101148.53
2018-02-04T01:43:59.788Z,101158.09
2018-02-04T01:46:25.893Z,101157.23
2018-02-04T01:48:52.074Z,101167.22
2018-02-04T01:51:18.170Z,101175.83
2018-02-04T01:53:44.323Z,101181.55
2018-02-04T01:56:10.459Z,101187.54
2018-02-04T01:58:36.661Z,101184.95
2018-02-04T02:01:02.795Z,101191.89
2018-02-04T02:03:28.954Z,101194.27
2018-02-04T02:05:55.063Z,101196.44
2018-02-04T02:08:21.164Z,101202.84
2018-02-04T02:10:47.312Z,101206.72
2018-02-04T02:13:13.487Z,101206.20
2018-02-04T02:15:39.608Z,101204.43
2018-02-04T02:18:05.704Z,101216.19
2018-02-04T02:20:31.858Z,101213.54
2018-02-04T02:22:58.010Z,101217.38
2018-02-04T02:25:24.097Z,101223.40
2018-02-04T02:27:50.238Z,101226.50
2018-02-04T02:30:16.454Z,101227.34
2018-02-04T02:32:42.555Z,101232.05
2018-02-04T02:35:08.767Z,101235.88
2018-02-04T02:37:34.925Z,101242.41
2018-02-04T02:40:01.035Z,101247.48
2018-02-04T02:42:27.185Z,101249.26
2018-02-04T02:44:53.344Z,101254.81
2018-02-04T02:47:19.451Z,101263.05
2018-02-04T02:49:45.594Z,101264.36
2018-02-04T02:52:11.766Z,101266.95
2018-02-04T02:54:37.922Z,101277.83
2018-02-04T02:57:04.018Z,101281.67
2018-02-04T02:59:30.206Z,101288.21
2018-02-04T03:01:56.323Z,101290.78
2018-02-04T03:04:22.485Z,101298.07
2018-02-04T03:06:48.579Z,101299.87
2018-02-04T03:09:14.723Z,101308.92
2018-02-04T03:11:40.821Z,101305.83
2018-02-04T03:14:07.011Z,101318.03
2018-02-04T03:16:33.159Z,101327.05
2018-02-04T03:18:59.267Z,101326.27
2018-02-04T03:21:25.418Z,101333.95
2018-02-04T03:23:51.558Z,101335.25
2018-02-04T03:26:17.659Z,101339.19
2018-02-04T03:28:43.802Z,101342.69
2018-02-04T03:31:09.905Z,101345.68
2018-02-04T03:33:36.065Z,101358.61
2018-02-04T03:36:02.250Z,101353.58
2018-02-04T03:38:28.335Z,101367.83
2018-02-04T03:40:54.443Z,101369.95
2018-02-04T03:43:20.640Z,101378.19
2018-02-04T03:45:46.741Z,101384.96
2018-02-04T03:48:12.849Z,101398.63
2018-02-04T03:50:38.997Z,101399.92
2018-02-04T03:53:05.115Z,101404.53
2018-02-04T03:55:31.271Z,101425.18
2018-02-04T03:57:57.442Z,101434.75
2018-02-04T04:00:23.540Z,101439.95
2018-02-04T04:02:49.710Z,101449.39
2018-02-04T04:05:15.888Z,101458.55
2018-02-04T04:07:41.993Z,101461.33
2018-02-04T04:10:08.080Z,101467.16
2018-02-04T04:12:34.224Z,101484.25
2018-02-04T04:15:00.400Z,101490.56
2018-02-04T04:17:26.495Z,101496.83
2018-02-04T04:19:52.717Z,101507.59
2018-02-04T04:22:18.887Z,101500.20
2018-02-04T04:24:45.926Z,101513.44
2018-02-04T04:27:12.145Z,101511.63
2018-02-04T04:29:38.373Z,101521.94
2018-02-04T04:32:04.575Z,101516.30
2018-02-04T04:34:30.780Z,101541.31
2018-02-04T04:36:56.995Z,101556.34
2018-02-04T04:39:23.162Z,101560.14
2018-02-04T04:41:49.402Z,101561.89
2018-02-04T04:44:15.626Z,101563.97
2018-02-04T04:46:41.818Z,101549.80
2018-02-04T04:49:07.986Z,101560.38
2018-02-04T04:51:34.144Z,101556.61
2018-02-04T04:54:00.355Z,101557.94
2018-02-04T04:56:26.532Z,101559.20
2018-02-04T04:58:52.749Z,101554.92
2018-02-04T05:01:18.929Z,101561.83
2018-02-04T05:03:45.253Z,101570.38
2018-02-04T05:06:11.394Z,101581.10
2018-02-04T05:08:37.548Z,101580.36
2018-02-04T05:11:03.728Z,101585.22
2018-02-04T05:13:29.936Z,101589.87
2018-02-04T05:15:56.056Z,101600.25
2018-02-04T05:18:22.224Z,101595.33
2018-02-04T05:20:48.382Z,101600.50
2018-02-04T05:23:14.548Z,101607.41
2018-02-04T05:25:40.770Z,101604.33
2018-02-04T05:28:07.000Z,101606.63
2018-02-04T05:30:33.170Z,101617.02
2018-02-04T05:32:59.446Z,101618.41
2018-02-04T05:35:25.657Z,101621.33
2018-02-04T05:37:51.867Z,101624.05
2018-02-04T05:40:18.032Z,101623.27
2018-02-04T05:42:44.239Z,101637.17
2018-02-04T05:45:10.473Z,101645.30
2018-02-04T05:47:36.653Z,101647.54
2018-02-04T05:50:02.816Z,101650.87
2018-02-04T05:52:28.990Z,101648.83
2018-02-04T05:54:55.251Z,101660.06
2018-02-04T05:57:21.511Z,101659.20
2018-02-04T05:59:47.716Z,101665.80
2018-02-04T06:02:13.950Z,101668.36
2018-02-04T06:04:40.120Z,101666.67
2018-02-04T06:07:06.287Z,101669.66
2018-02-04T06:09:32.507Z,101669.27
2018-02-04T06:11:58.704Z,101667.20
2018-02-04T06:14:24.953Z,101678.89
2018-02-04T06:16:51.228Z,101681.55
2018-02-04T06:19:17.397Z,101684.27
2018-02-04T06:21:43.582Z,101689.81
2018-02-04T06:24:09.832Z,101685.20
2018-02-04T06:26:36.100Z,101696.81
2018-02-04T06:29:02.406Z,101693.95
2018-02-04T06:31:28.672Z,101692.89
2018-02-04T06:33:54.966Z,101688.16
2018-02-04T06:36:21.210Z,101691.17
2018-02-04T06:38:47.544Z,101697.78
2018-02-04T06:41:13.700Z,101708.09
2018-02-04T06:43:39.855Z,101715.90
2018-02-04T06:46:06.085Z,101726.66
2018-02-04T06:48:32.245Z,101728.89
2018-02-04T06:50:58.475Z,101743.61
2018-02-04T06:53:24.692Z,101739.23
2018-02-04T06:55:50.921Z,101741.50
2018-02-04T06:58:17.124Z,101742.31
2018-02-04T07:00:43.359Z,101750.94
2018-02-04T07:03:09.541Z,101759.63
2018-02-04T07:05:35.735Z,101768.70
2018-02-04T07:08:01.880Z,101773.06
2018-02-04T07:10:28.105Z,101774.92
2018-02-04T07:12:54.338Z,101779.36
2018-02-04T07:15:20.539Z,101787.04
2018-02-04T07:17:46.914Z,101788.80
2018-02-04T07:20:13.154Z,101775.38
2018-02-04T07:22:39.316Z,101787.01
2018-02-04T07:25:05.545Z,101793.72
2018-02-04T07:27:31.744Z,101794.59
2018-02-04T07:29:58.080Z,101800.66
2018-02-04T07:32:24.318Z,101808.15
2018-02-04T07:34:50.515Z,101814.70
2018-02-04T07:37:16.677Z,101818.20
2018-02-04T07:39:42.913Z,101816.13
2018-02-04T07:42:09.140Z,101816.33
2018-02-04T07:44:35.340Z,101828.45
2018-02-04T07:47:01.562Z,101832.34
2018-02-04T07:49:27.812Z,101836.78
2018-02-04T07:51:54.019Z,101835.52
2018-02-04T07:54:20.279Z,101839.12
2018-02-04T07:56:46.442Z,101847.16
2018-02-04T07:59:12.641Z,101849.86
2018-02-04T08:01:38.805Z,101850.13
2018-02-04T08:04:04.947Z,101857.22
2018-02-04T08:06:31.153Z,101863.87
2018-02-04T08:08:57.327Z,101864.88
2018-02-04T08:11:23.646Z,101874.37
2018-02-04T08:13:49.841Z,101868.25
2018-02-04T08:16:16.087Z,101875.39
2018-02-04T08:18:42.314Z,101880.71
2018-02-04T08:21:08.534Z,101883.53
2018-02-04T08:23:34.793Z,101893.16
2018-02-04T08:26:01.026Z,101898.78
2018-02-04T08:28:27.262Z,101908.03
2018-02-04T08:30:53.521Z,101914.33
2018-02-04T08:33:19.687Z,101910.00
2018-02-04T08:35:46.052Z,101920.16
2018-02-04T08:38:12.294Z,101922.82
2018-02-04T08:40:38.590Z,101928.86
2018-02-04T08:43:04.765Z,101930.34
2018-02-04T08:45:30.969Z,101932.78
2018-02-04T08:47:57.162Z,101935.80
2018-02-04T08:50:23.370Z,101935.24
2018-02-04T08:52:49.561Z,101938.09
2018-02-04T08:55:15.812Z,101946.56
2018-02-04T08:57:42.023Z,101949.70
2018-02-04T09:00:08.202Z,101951.65
2018-02-04T09:02:34.411Z,101954.77
2018-02-04T09:05:00.718Z,101958.01
2018-02-04T09:07:26.898Z,101949.19
2018-02-04T09:09:53.080Z,101951.67
2018-02-04T09:12:19.703Z,101961.74
2018-02-04T09:14:45.958Z,101966.28
2018-02-04T09:17:12.152Z,101972.02
2018-02-04T09:19:38.384Z,101979.22
2018-02-04T09:22:04.768Z,101980.19
2018-02-04T09:24:30.908Z,101987.62
2018-02-04T09:26:57.170Z,101982.48
2018-02-04T09:29:24.321Z,101985.28
2018-02-04T09:31:50.509Z,101977.27
2018-02-04T09:34:16.672Z,101969.37
2018-02-04T09:36:42.899Z,101978.04
2018-02-04T09:39:09.071Z,101981.39
2018-02-04T09:41:35.223Z,101980.81
2018-02-04T09:44:01.418Z,101981.56
2018-02-04T09:46:27.619Z,101979.95
2018-02-04T09:48:53.777Z,101982.95
2018-02-04T09:51:19.995Z,101989.48
2018-02-04T09:53:46.254Z,101991.41
2018-02-04T09:56:12.431Z,101989.22
2018-02-04T09:58:38.698Z,101988.84
2018-02-04T10:01:04.886Z,101987.03
2018-02-04T10:03:31.044Z,101994.64
2018-02-04T10:05:57.268Z,101995.49
2018-02-04T10:08:23.476Z,101984.17
2018-02-04T10:10:49.635Z,101987.42
2018-02-04T10:13:15.819Z,101996.59
2018-02-04T10:15:42.011Z,102003.13
2018-02-04T10:18:08.228Z,102001.09
2018-02-04T10:20:34.485Z,102016.87
2018-02-04T10:23:00.713Z,102017.41
2018-02-04T10:25:26.958Z,102012.66
2018-02-04T10:27:53.414Z,102007.95
2018-02-04T10:30:19.646Z,102013.81
2018-02-04T10:32:45.861Z,102015.44
2018-02-04T10:35:12.110Z,102004.30
2018-02-04T10:37:38.483Z,102019.78
2018-02-04T10:40:04.642Z,102016.32
2018-02-04T10:42:30.828Z,102023.86
2018-02-04T10:44:57.091Z,102019.38
2018-02-04T10:47:23.277Z,102016.23
2018-02-04T10:49:50.071Z,102023.36
2018-02-04T10:52:16.346Z,102029.95
2018-02-04T10:54:42.492Z,102025.72
2018-02-04T10:57:08.783Z,102026.30
2018-02-04T10:59:35.040Z,102034.48
2018-02-04T11:02:01.191Z,102042.13
2018-02-04T11:04:27.387Z,102045.73
2018-02-04T11:06:53.911Z,102044.23
2018-02-04T11:09:20.067Z,102043.42
2018-02-04T11:11:46.229Z,102042.00
2018-02-04T11:14:12.404Z,102045.38
2018-02-04T11:16:38.584Z,102043.87
2018-02-04T11:19:04.786Z,102044.43
2018-02-04T11:21:30.958Z,102049.15
2018-02-04T11:23:57.455Z,102054.23
2018-02-04T11:26:23.712Z,102049.26
2018-02-04T11:28:49.888Z,102056.47
2018-02-04T11:31:18.671Z,102047.52
2018-02-04T11:33:44.824Z,102050.63
2018-02-04T11:36:11.109Z,102042.24
2018-02-04T11:38:37.220Z,102038.91
2018-02-04T11:41:03.597Z,102045.81
2018-02-04T11:43:29.729Z,102040.77
2018-02-04T11:45:55.928Z,102040.34
2018-02-04T11:48:22.078Z,102039.70
2018-02-04T11:50:48.218Z,102045.63
2018-02-04T11:53:14.471Z,102033.86
2018-02-04T11:55:40.734Z,102044.31
2018-02-04T11:58:06.958Z,102068.13
2018-02-04T12:00:33.179Z,102039.73
2018-02-04T12:02:59.389Z,102048.18
2018-02-04T12:05:25.615Z,102052.07
2018-02-04T12:07:51.792Z,102050.41
2018-02-04T12:10:18.091Z,102039.48
2018-02-04T12:12:44.342Z,102044.92
2018-02-04T12:15:10.548Z,102040.08
2018-02-04T12:17:36.828Z,102040.73
2018-02-04T12:20:03.161Z,102050.29
2018-02-04T12:22:29.358Z,102052.00
2018-02-04T12:24:55.604Z,102053.67
2018-02-04T12:27:21.869Z,102045.25
2018-02-04T12:29:50.818Z,102053.23
2018-02-04T12:32:16.993Z,102047.59
2018-02-04T12:34:43.207Z,102050.65
2018-02-04T12:37:09.489Z,102058.20
2018-02-04T12:39:36.777Z,102053.39
2018-02-04T12:42:02.918Z,102046.28
2018-02-04T12:44:29.273Z,102045.35
2018-02-04T12:46:55.481Z,102048.03
2018-02-04T12:49:21.668Z,102045.71
2018-02-04T12:51:47.884Z,102040.13
2018-02-04T12:54:14.971Z,102047.66
2018-02-04T12:56:41.214Z,102043.72
2018-02-04T12:59:07.501Z,102049.08
2018-02-04T13:01:33.984Z,102052.66
2018-02-04T13:04:00.099Z,102057.49
2018-02-04T13:06:26.354Z,102053.58
2018-02-04T13:08:52.533Z,102056.13
2018-02-04T13:11:18.733Z,102053.34
2018-02-04T13:13:45.043Z,102059.58
2018-02-04T13:16:11.226Z,102058.06
2018-02-04T13:18:37.418Z,102068.79
2018-02-04T13:21:03.578Z,102070.11
2018-02-04T13:23:29.746Z,102072.58
2018-02-04T13:25:55.916Z,102075.56
2018-02-04T13:28:22.128Z,102079.73
2018-02-04T13:30:48.470Z,102079.41
2018-02-04T13:33:14.708Z,102075.64
2018-02-04T13:35:40.873Z,102090.57
2018-02-04T13:38:07.076Z,102072.25
2018-02-04T13:40:33.297Z,102079.86
2018-02-04T13:42:59.466Z,102071.80
2018-02-04T13:45:25.671Z,102082.64
2018-02-04T13:47:51.941Z,102070.27
2018-02-04T13:50:18.081Z,102078.16
2018-02-04T13:52:44.237Z,102090.63
2018-02-04T13:55:10.407Z,102092.20
2018-02-04T13:57:36.630Z,102092.71
2018-02-04T14:00:02.949Z,102085.35
2018-02-04T14:02:29.082Z,102099.09
2018-02-04T14:04:55.272Z,102092.67
2018-02-04T14:07:21.469Z,102089.27
2018-02-04T14:09:47.729Z,102089.60
2018-02-04T14:12:13.952Z,102089.51
2018-02-04T14:14:40.122Z,102094.02
2018-02-04T14:17:06.408Z,102099.48
2018-02-04T14:19:32.633Z,102099.06
2018-02-04T14:21:58.837Z,102106.22
2018-02-04T14:24:25.048Z,102100.66
2018-02-04T14:26:51.287Z,102115.58
2018-02-04T14:29:17.536Z,102110.55
2018-02-04T14:31:43.695Z,102118.13
2018-02-04T14:34:10.120Z,102114.53
2018-02-04T14:36:36.426Z,102120.77
2018-02-04T14:39:02.591Z,102123.16
2018-02-04T14:41:35.854Z,102122.92
2018-02-04T14:44:01.996Z,102117.48
2018-02-04T14:46:28.278Z,102112.45
2018-02-04T14:48:59.474Z,102132.31
2018-02-04T14:51:27.236Z,102136.45
2018-02-04T14:53:53.687Z,102135.73
2018-02-04T14:56:20.078Z,102144.34
2018-02-04T14:58:46.359Z,102143.62
2018-02-04T15:01:12.695Z,102152.11
2018-02-04T15:03:38.889Z,102151.27
2018-02-04T15:06:05.055Z,102154.47
2018-02-04T15:08:31.271Z,102156.81
2018-02-04T15:10:57.597Z,102162.53
2018-02-04T15:13:23.781Z,102158.24
2018-02-04T15:15:49.929Z,102157.36
2018-02-04T15:18:16.167Z,102157.36
2018-02-04T15:20:42.322Z,102164.06
2018-02-04T15:23:08.604Z,102165.76
2018-02-04T15:25:34.849Z,102167.16
2018-02-04T15:28:01.205Z,102177.84
2018-02-04T15:30:28.136Z,102178.02
2018-02-04T15:32:55.313Z,102172.51
2018-02-04T15:35:22.058Z,102188.98
2018-02-04T15:37:48.336Z,102184.95
2018-02-04T15:40:14.513Z,102182.59
2018-02-04T15:42:40.812Z,102180.69
2018-02-04T15:45:08.006Z,102192.25
2018-02-04T15:47:34.177Z,102195.03
2018-02-04T15:50:01.092Z,102198.45
2018-02-04T15:52:27.288Z,102196.70
2018-02-04T15:54:59.941Z,102196.55
2018-02-04T15:57:36.934Z,102193.94
2018-02-04T16:00:04.566Z,102197.60
2018-02-04T16:02:30.807Z,102208.25
2018-02-04T16:04:56.985Z,102207.22
2018-02-04T16:07:23.180Z,102206.21
2018-02-04T16:09:51.004Z,102211.48
2018-02-04T16:12:18.565Z,102214.38
2018-02-04T16:14:44.734Z,102213.56
2018-02-04T16:17:11.264Z,102215.75
2018-02-04T16:19:37.658Z,102221.50
2018-02-04T16:22:04.790Z,102221.75
2018-02-04T16:24:31.753Z,102209.86
2018-02-04T16:26:57.926Z,102228.38
2018-02-04T16:29:24.123Z,102223.79
2018-02-04T16:31:50.490Z,102225.55
2018-02-04T16:34:16.728Z,102227.27
2018-02-04T16:36:43.009Z,102229.42
2018-02-04T16:39:09.161Z,102235.44
2018-02-04T16:41:35.340Z,102239.80
2018-02-04T16:44:01.561Z,102243.39
2018-02-04T16:46:27.683Z,102236.11
2018-02-04T16:48:53.871Z,102239.17
2018-02-04T16:51:20.057Z,102240.52
2018-02-04T16:53:46.279Z,102242.75
2018-02-04T16:56:12.511Z,102246.05
2018-02-04T16:58:38.709Z,102255.20
2018-02-04T17:01:04.916Z,102258.45
2018-02-04T17:03:31.111Z,102260.04
2018-02-04T17:05:57.315Z,102268.25
2018-02-04T17:08:23.608Z,102271.67
2018-02-04T17:10:49.852Z,102276.08
2018-02-04T17:13:16.044Z,102274.92
2018-02-04T17:15:42.213Z,102282.02
2018-02-04T17:18:08.386Z,102280.79
2018-02-04T17:20:34.585Z,102279.98
2018-02-04T17:23:00.839Z,102284.52
2018-02-04T17:25:27.031Z,102283.19
2018-02-04T17:27:53.232Z,102288.09
2018-02-04T17:30:19.565Z,102285.00
2018-02-04T17:32:45.752Z,102285.39
2018-02-04T17:35:11.884Z,102287.45
2018-02-04T17:37:38.107Z,102289.28
2018-02-04T19:05:41.678Z,102368.61
2018-02-04T19:23:28.857Z,102375.87
2018-02-04T19:56:28.845Z,102398.90
2018-02-04T19:58:59.068Z,102399.08
2018-02-04T20:07:30.581Z,102391.84
2018-02-04T20:09:56.770Z,102395.56
2018-02-04T20:12:22.962Z,102398.12
2018-02-04T20:14:49.135Z,102397.91
2018-02-04T20:17:15.259Z,102396.27
2018-02-04T20:19:41.376Z,102399.85
2018-02-04T20:22:07.560Z,102406.00
2018-02-04T20:24:33.822Z,102398.72
2018-02-04T20:26:59.968Z,102396.16
2018-02-04T20:29:26.133Z,102393.52
2018-02-04T20:31:52.310Z,102402.45
2018-02-04T20:34:30.510Z,102399.08
2018-02-04T20:36:56.678Z,102404.66
2018-02-04T20:39:22.826Z,102405.09
2018-02-04T20:41:48.977Z,102403.75
2018-02-04T20:44:15.161Z,102404.66
2018-02-04T20:46:41.358Z,102409.48
2018-02-04T20:49:07.491Z,102393.38
2018-02-04T20:51:33.686Z,102396.51
2018-02-04T20:53:59.884Z,102399.50
2018-02-04T20:56:26.047Z,102404.20
2018-02-04T20:58:52.290Z,102397.73
2018-02-04T21:01:18.399Z,102405.86
2018-02-04T21:03:44.567Z,102402.27
2018-02-04T21:06:10.723Z,102407.02
2018-02-04T21:08:37.199Z,102401.50
2018-02-04T21:11:03.313Z,102401.71
2018-02-04T21:13:29.540Z,102406.45
2018-02-04T21:15:55.694Z,102403.33
2018-02-04T21:18:21.808Z,102398.05
2018-02-04T21:20:47.916Z,102392.50
2018-02-04T21:23:14.255Z,102389.55
2018-02-04T21:25:40.463Z,102391.90
2018-02-04T21:28:06.635Z,102398.76
2018-02-04T21:30:32.849Z,102408.14
2018-02-04T21:32:58.951Z,102403.22
2018-02-04T21:35:25.101Z,102405.86
2018-02-04T21:37:51.265Z,102410.36
2018-02-04T21:40:17.356Z,102404.59
2018-02-04T21:42:43.531Z,102411.87
2018-02-04T21:45:09.758Z,102403.12
2018-02-04T21:47:35.925Z,102414.83
2018-02-04T21:50:02.087Z,102414.47
2018-02-04T21:52:28.254Z,102412.15
2018-02-04T21:54:54.416Z,102419.95
2018-02-04T21:57:20.625Z,102412.05
2018-02-04T21:59:46.880Z,102408.56
2018-02-04T22:02:13.030Z,102416.97
2018-02-04T22:04:39.185Z,102414.92
2018-02-04T22:07:05.312Z,102415.35
2018-02-04T22:09:31.418Z,102413.17
2018-02-04T22:11:57.578Z,102409.20
2018-02-04T22:14:23.785Z,102415.25
2018-02-04T22:16:49.887Z,102415.25
2018-02-04T22:19:15.972Z,102411.27
2018-02-04T22:21:42.127Z,102412.26
2018-02-04T22:24:08.224Z,102408.60
2018-02-04T22:26:34.386Z,102411.70
2018-02-04T22:29:00.607Z,102419.92
2018-02-04T22:31:26.767Z,102413.23
2018-02-04T22:33:52.862Z,102419.81
2018-02-04T22:36:19.034Z,102419.78
2018-02-04T22:38:45.164Z,102417.80
2018-02-04T22:41:11.308Z,102411.69
2018-02-04T22:43:37.443Z,102417.91
2018-02-04T22:46:03.603Z,102419.60
2018-02-04T22:48:29.737Z,102414.19
2018-02-04T22:50:55.860Z,102418.58
2018-02-04T22:53:22.026Z,102418.90
2018-02-04T22:55:48.188Z,102424.09
2018-02-04T22:58:14.350Z,102426.28
2018-02-04T23:00:40.482Z,102430.14
2018-02-04T23:03:06.724Z,102432.08
2018-02-04T23:05:32.892Z,102427.27
2018-02-04T23:07:58.988Z,102422.63
2018-02-04T23:10:25.092Z,102425.72
2018-02-04T23:12:51.255Z,102418.72
2018-02-04T23:15:17.398Z,102420.55
2018-02-04T23:17:43.559Z,102418.16
2018-02-04T23:20:09.723Z,102418.39
2018-02-04T23:22:35.852Z,102423.94
2018-02-04T23:25:02.032Z,102424.84
2018-02-04T23:27:28.301Z,102426.18
2018-02-04T23:29:54.406Z,102429.23
2018-02-04T23:32:20.582Z,102430.12
2018-02-04T23:34:46.776Z,102425.20
2018-02-04T23:37:12.898Z,102421.09
2018-02-04T23:39:38.994Z,102420.50
2018-02-04T23:42:05.132Z,102423.20
2018-02-04T23:44:31.244Z,102424.86
2018-02-04T23:46:57.377Z,102417.73
2018-02-04T23:49:23.495Z,102421.28
2018-02-04T23:51:49.613Z,102418.68
2018-02-04T23:54:15.709Z,102418.41
2018-02-04T23:56:41.853Z,102423.22
2018-02-04T23:59:08.076Z,102425.43
